Time;durP1;ratioP1;P1;durP2;ratioP2;P2;SDS_P1;SDS_P2;PMS_P1;PMS_P2;Temp;Humidity;BMP_temperature;BMP_pressure;BME280_temperature;BME280_humidity;BME280_pressure;Samples;Min_cycle;Max_cycle;Signal;HPM_P1;HPM_P2
2023/08/13 00:02:14;;;;;;;1.00;0.50;;;;;;;16.39;100.00;99795.29;108909;1253;72837;-49
2023/08/13 00:04:42;;;;;;;2.60;0.50;;;;;;;16.38;100.00;99798.27;109103;1253;67589;-48
2023/08/13 00:07:11;;;;;;;2.10;0.50;;;;;;;16.38;100.00;99797.73;104699;1256;71932;-49
2023/08/13 00:09:40;;;;;;;1.30;0.40;;;;;;;16.37;100.00;99792.55;104885;1253;61257;-51
2023/08/13 00:12:08;;;;;;;1.60;0.40;;;;;;;16.39;100.00;99794.95;105392;1253;60516;-51
2023/08/13 00:14:35;;;;;;;1.80;0.50;;;;;;;16.40;100.00;99796.34;104666;1255;74311;-50
2023/08/13 00:17:02;;;;;;;0.90;0.60;;;;;;;16.41;100.00;99793.74;104693;1254;66622;-50
2023/08/13 00:19:30;;;;;;;0.90;0.60;;;;;;;16.42;100.00;99790.76;106232;1254;71457;-50
2023/08/13 00:21:57;;;;;;;2.50;0.50;;;;;;;16.41;100.00;99797.18;104585;1256;61702;-49
2023/08/13 00:24:31;;;;;;;;;;;;;;;16.38;100.00;99800.24;105401;1254;61208;-50
2023/08/13 00:26:59;;;;;;;1.50;0.50;;;;;;;16.36;100.00;99795.16;104567;1254;73832;-48
2023/08/13 00:29:27;;;;;;;1.10;0.50;;;;;;;16.33;100.00;99791.63;104795;1257;66755;-50
2023/08/13 00:31:55;;;;;;;0.90;0.50;;;;;;;16.30;100.00;99793.59;104844;1253;72698;-50
2023/08/13 00:34:23;;;;;;;0.80;0.60;;;;;;;16.28;100.00;99790.13;105228;1259;60581;-49
2023/08/13 00:36:50;;;;;;;0.60;0.50;;;;;;;16.24;100.00;99791.27;105076;1253;60455;-50
2023/08/13 00:39:18;;;;;;;0.60;0.50;;;;;;;16.23;100.00;99794.65;104888;1254;74328;-49
2023/08/13 00:41:45;;;;;;;2.90;0.50;;;;;;;16.21;100.00;99793.29;104822;1253;67000;-49
2023/08/13 00:44:12;;;;;;;1.20;0.60;;;;;;;16.20;100.00;99792.29;105068;1253;72643;-50
2023/08/13 00:46:40;;;;;;;1.40;0.50;;;;;;;16.19;100.00;99792.22;104706;1254;62194;-49
2023/08/13 00:49:07;;;;;;;0.90;0.60;;;;;;;16.18;100.00;99796.27;104772;1254;60467;-50
2023/08/13 00:51:39;;;;;;;2.90;0.60;;;;;;;16.16;100.00;99799.65;104584;1253;73895;-50
2023/08/13 00:54:07;;;;;;;4.00;0.50;;;;;;;16.14;100.00;99802.89;104607;1253;67157;-50
2023/08/13 00:56:35;;;;;;;3.20;0.50;;;;;;;16.14;100.00;99796.58;104608;1253;74999;-48
2023/08/13 00:59:03;;;;;;;3.30;0.60;;;;;;;16.14;100.00;99798.20;104771;1253;60424;-48
2023/08/13 01:01:30;;;;;;;2.50;0.80;;;;;;;16.13;100.00;99798.21;105230;1253;60491;-52
2023/08/13 01:03:57;;;;;;;2.10;0.60;;;;;;;16.12;100.00;99799.58;104766;1253;73834;-49
2023/08/13 01:06:46;;;;;;;1.60;0.60;;;;;;;16.10;100.00;99799.58;104871;1253;66059;-48
2023/08/13 01:09:22;;;;;;;0.60;0.50;;;;;;;16.06;100.00;99797.16;104712;1254;71496;-50
2023/08/13 01:12:10;;;;;;;0.90;0.60;;;;;;;16.03;100.00;99797.14;104608;1254;61600;-49
2023/08/13 01:14:52;;;;;;;3.00;0.70;;;;;;;16.01;100.00;99794.20;104611;1253;60335;-50
2023/08/13 01:17:19;;;;;;;0.90;0.60;;;;;;;15.99;100.00;99793.23;104564;1253;72831;-48
2023/08/13 01:19:47;;;;;;;3.10;0.60;;;;;;;15.99;100.00;99796.16;104912;1259;67507;-48
2023/08/13 01:22:15;;;;;;;0.60;0.50;;;;;;;16.00;100.00;99791.41;106720;1254;71424;-47
2023/08/13 01:24:42;;;;;;;0.80;0.60;;;;;;;16.00;100.00;99797.15;104543;1254;64063;-50
2023/08/13 01:27:16;;;;;;;1.60;0.70;;;;;;;16.00;100.00;99797.67;105140;1254;60554;-48
2023/08/13 01:29:49;;;;;;;2.40;0.60;;;;;;;16.01;100.00;99805.10;105693;1255;73931;-49
2023/08/13 01:32:17;;;;;;;2.70;0.90;;;;;;;15.99;100.00;99801.95;104990;1254;66670;-48
2023/08/13 01:34:44;;;;;;;1.20;0.70;;;;;;;15.98;100.00;99800.60;104891;1257;71511;-46
2023/08/13 01:37:11;;;;;;;0.90;0.50;;;;;;;15.97;100.00;99804.07;104729;1254;60585;-49
2023/08/13 01:39:39;;;;;;;3.90;0.60;;;;;;;15.96;100.00;99800.52;104915;1254;60360;-48
2023/08/13 01:42:09;;;;;;;2.70;0.70;;;;;;;15.95;100.00;99805.86;106059;1253;75887;-48
2023/08/13 01:44:37;;;;;;;1.30;0.50;;;;;;;15.93;100.00;99808.36;105010;1257;66740;-48
2023/08/13 01:47:05;;;;;;;1.00;0.60;;;;;;;15.90;100.00;99808.39;105276;1254;72703;-51
2023/08/13 01:49:33;;;;;;;0.70;0.60;;;;;;;15.88;100.00;99809.40;104633;1254;64096;-49
2023/08/13 01:52:00;;;;;;;1.10;0.50;;;;;;;15.88;100.00;99811.42;104956;1254;60553;-48
2023/08/13 01:54:28;;;;;;;2.20;0.50;;;;;;;15.88;100.00;99807.25;104962;1254;74253;-48
2023/08/13 01:56:55;;;;;;;1.50;0.50;;;;;;;15.88;100.00;99806.86;105120;1254;67846;-50
2023/08/13 01:59:23;;;;;;;0.80;0.50;;;;;;;15.89;100.00;99808.98;106009;1256;71252;-50
2023/08/13 02:01:50;;;;;;;1.00;0.60;;;;;;;15.89;100.00;99810.27;104736;1254;60451;-49
2023/08/13 02:04:17;;;;;;;1.20;0.60;;;;;;;15.88;100.00;99810.99;104730;1257;60360;-49
2023/08/13 02:06:45;;;;;;;0.90;0.80;;;;;;;15.87;100.00;99815.06;104644;1254;72071;-50
2023/08/13 02:09:12;;;;;;;0.70;0.60;;;;;;;15.83;100.00;99813.90;104594;1257;66627;-48
2023/08/13 02:11:39;;;;;;;1.10;0.50;;;;;;;15.79;100.00;99815.07;104626;1259;74572;-51
2023/08/13 02:14:06;;;;;;;0.70;0.70;;;;;;;15.77;100.00;99812.88;104699;1259;62910;-50
2023/08/13 02:16:34;;;;;;;0.70;0.50;;;;;;;15.73;100.00;99814.23;104489;1254;60826;-49
2023/08/13 02:19:03;;;;;;;3.90;0.60;;;;;;;15.70;100.00;99811.41;107236;1257;72568;-50
2023/08/13 02:21:31;;;;;;;2.00;0.50;;;;;;;15.66;100.00;99813.27;104953;1259;66322;-48
2023/08/13 02:23:58;;;;;;;1.80;0.60;;;;;;;15.64;100.00;99818.90;104996;1256;71467;-49
2023/08/13 02:26:25;;;;;;;1.40;0.50;;;;;;;15.62;100.00;99817.54;104995;1254;61697;-48
2023/08/13 02:28:52;;;;;;;1.30;0.50;;;;;;;15.61;100.00;99819.83;104876;1259;60413;-48
2023/08/13 02:31:20;;;;;;;1.50;0.60;;;;;;;15.59;100.00;99820.28;104982;1254;73849;-49
2023/08/13 02:33:47;;;;;;;1.50;0.50;;;;;;;15.58;100.00;99816.69;109044;1252;66770;-50
2023/08/13 02:36:15;;;;;;;0.70;0.50;;;;;;;15.58;100.00;99819.81;108991;1254;73683;-51
2023/08/13 02:38:42;;;;;;;1.40;0.50;;;;;;;15.57;100.00;99818.23;108908;1259;60008;-51
2023/08/13 02:41:09;;;;;;;0.70;0.60;;;;;;;15.56;100.00;99818.35;108946;1254;60045;-50
2023/08/13 02:43:54;;;;;;;0.90;0.60;;;;;;;15.55;100.00;99821.52;108995;1253;73888;-49
2023/08/13 02:46:25;;;;;;;0.80;0.70;;;;;;;15.51;100.00;99817.87;109168;1253;66786;-49
2023/08/13 02:48:56;;;;;;;0.70;0.60;;;;;;;15.46;100.00;99816.94;109086;1253;72682;-51
2023/08/13 02:51:24;;;;;;;1.50;0.50;;;;;;;15.43;100.00;99818.98;109119;1254;60397;-49
2023/08/13 02:53:51;;;;;;;2.50;0.50;;;;;;;15.41;100.00;99819.85;108971;1253;58735;-52
2023/08/13 02:56:19;;;;;;;0.70;0.50;;;;;;;15.38;100.00;99819.52;108986;1252;74726;-50
2023/08/13 02:58:46;;;;;;;0.60;0.50;;;;;;;15.37;100.00;99817.80;108918;1254;65897;-51
2023/08/13 03:01:13;;;;;;;2.30;0.60;;;;;;;15.36;100.00;99815.68;108934;1254;72400;-49
2023/08/13 03:03:41;;;;;;;1.70;0.50;;;;;;;15.36;100.00;99819.29;108819;1254;61725;-49
2023/08/13 03:06:20;;;;;;;1.10;0.50;;;;;;;15.37;100.00;99820.86;109020;1257;58761;-51
2023/08/13 03:08:48;;;;;;;0.60;0.50;;;;;;;15.38;100.00;99824.59;107711;1257;72561;-50
2023/08/13 03:11:15;;;;;;;1.70;0.70;;;;;;;15.38;100.00;99828.91;104719;1254;66775;-48
2023/08/13 03:13:43;;;;;;;0.90;0.90;;;;;;;15.36;100.00;99830.83;105058;1254;71299;-48
2023/08/13 03:16:11;;;;;;;0.60;0.60;;;;;;;15.35;100.00;99836.35;105878;1254;60362;-48
2023/08/13 03:18:40;;;;;;;3.00;0.60;;;;;;;15.34;100.00;99830.44;105549;1254;60524;-49
2023/08/13 03:21:09;;;;;;;1.10;0.50;;;;;;;15.33;100.00;99833.60;105008;1254;72664;-47
2023/08/13 03:23:36;;;;;;;0.80;0.60;;;;;;;15.32;100.00;99833.63;105156;1254;66769;-48
2023/08/13 03:26:04;;;;;;;2.30;0.60;;;;;;;15.32;100.00;99837.09;105049;1254;72766;-47
2023/08/13 03:28:31;;;;;;;2.60;0.40;;;;;;;15.31;100.00;99836.56;106824;1254;60437;-47
2023/08/13 03:31:05;;;;;;;0.60;0.50;;;;;;;15.32;100.00;99834.35;104796;1254;60662;-49
2023/08/13 03:33:42;;;;;;;0.60;0.50;;;;;;;15.34;100.00;99835.10;105327;1254;72738;-49
2023/08/13 03:36:10;;;;;;;0.70;0.40;;;;;;;15.38;100.00;99835.22;106963;1254;67832;-49
2023/08/13 03:38:37;;;;;;;2.20;0.60;;;;;;;15.43;100.00;99837.05;104873;1254;72632;-48
2023/08/13 03:41:04;;;;;;;1.40;0.50;;;;;;;15.48;100.00;99834.94;105002;1259;60580;-48
2023/08/13 03:43:31;;;;;;;0.90;0.60;;;;;;;15.53;100.00;99837.89;104686;1254;60532;-49
2023/08/13 03:45:59;;;;;;;2.40;0.60;;;;;;;15.57;100.00;99838.50;105038;1254;72626;-48
2023/08/13 03:48:26;;;;;;;1.00;1.00;;;;;;;15.61;100.00;99842.20;105084;1259;70358;-47
2023/08/13 03:50:53;;;;;;;2.50;0.60;;;;;;;15.64;100.00;99842.73;104658;1254;72411;-48
2023/08/13 03:53:24;;;;;;;2.60;0.60;;;;;;;15.66;100.00;99845.27;105047;1254;61609;-47
2023/08/13 03:55:53;;;;;;;1.40;0.50;;;;;;;15.69;100.00;99848.53;105028;1256;60530;-48
2023/08/13 03:58:21;;;;;;;2.40;0.60;;;;;;;15.71;100.00;99853.63;105167;1257;74251;-49
2023/08/13 04:00:48;;;;;;;1.20;0.50;;;;;;;15.73;100.00;99852.59;105060;1255;67039;-49
2023/08/13 04:03:16;;;;;;;0.50;0.50;;;;;;;15.75;100.00;99857.14;105051;1257;72685;-48
2023/08/13 04:05:53;;;;;;;2.20;0.60;;;;;;;15.79;100.00;99853.66;105309;1259;62253;-49
2023/08/13 04:08:20;;;;;;;3.10;0.60;;;;;;;15.84;100.00;99861.05;104962;1254;60430;-50
2023/08/13 04:10:52;;;;;;;2.70;0.50;;;;;;;15.91;100.00;99864.63;104931;1254;73846;-50
2023/08/13 04:13:19;;;;;;;1.10;0.40;;;;;;;15.98;100.00;99864.34;105105;1254;67495;-49
2023/08/13 04:15:46;;;;;;;1.70;0.60;;;;;;;16.07;100.00;99865.28;104900;1254;73694;-48
2023/08/13 04:18:14;;;;;;;2.70;0.60;;;;;;;16.19;100.00;99869.66;105097;1253;60516;-47
2023/08/13 04:20:42;;;;;;;1.20;0.60;;;;;;;16.37;100.00;99864.48;104968;1254;60325;-49
2023/08/13 04:23:09;;;;;;;2.10;0.60;;;;;;;16.54;100.00;99866.66;105017;1259;73842;-48
2023/08/13 04:25:38;;;;;;;3.10;0.60;;;;;;;16.67;100.00;99872.10;105516;1254;67178;-49
2023/08/13 04:28:06;;;;;;;2.20;0.60;;;;;;;16.78;100.00;99873.86;105534;1259;72759;-50
2023/08/13 04:30:37;;;;;;;0.90;0.60;;;;;;;16.88;100.00;99874.77;104692;1254;60554;-49
2023/08/13 04:33:04;;;;;;;3.80;0.60;;;;;;;17.01;100.00;99874.39;104944;1254;60516;-51
2023/08/13 04:35:32;;;;;;;1.80;0.60;;;;;;;17.18;100.00;99876.35;105649;1254;73868;-48
2023/08/13 04:38:00;;;;;;;2.60;0.50;;;;;;;17.35;100.00;99875.09;104829;1260;66474;-51
2023/08/13 04:40:27;;;;;;;0.80;0.60;;;;;;;17.51;100.00;99877.20;104736;1259;70080;-50
2023/08/13 04:42:55;;;;;;;4.20;0.60;;;;;;;17.69;100.00;99879.08;104954;1254;61128;-50
2023/08/13 04:45:22;;;;;;;1.10;0.60;;;;;;;17.87;100.00;99882.48;104849;1254;60894;-50
2023/08/13 04:47:50;;;;;;;3.80;0.60;;;;;;;17.96;100.00;99886.86;105148;1259;74699;-48
2023/08/13 04:50:18;;;;;;;4.30;0.60;;;;;;;18.02;100.00;99887.27;104772;1259;66538;-49
2023/08/13 04:52:45;;;;;;;1.50;0.60;;;;;;;18.07;100.00;99885.79;104799;1254;72655;-49
2023/08/13 04:55:15;;;;;;;1.90;0.50;;;;;;;18.10;100.00;99890.31;104886;1256;60533;-47
2023/08/13 04:57:42;;;;;;;2.90;0.50;;;;;;;18.12;100.00;99892.48;105200;1255;60552;-49
2023/08/13 05:00:12;;;;;;;2.20;0.50;;;;;;;18.14;100.00;99893.41;104798;1259;73949;-49
2023/08/13 05:02:42;;;;;;;0.70;0.60;;;;;;;18.16;100.00;99894.91;105481;1254;67519;-48
2023/08/13 05:05:11;;;;;;;1.90;0.60;;;;;;;18.19;100.00;99900.02;104947;1253;71497;-49
2023/08/13 05:07:38;;;;;;;1.10;0.50;;;;;;;18.21;100.00;99899.06;104891;1259;60493;-49
2023/08/13 05:10:06;;;;;;;0.80;0.40;;;;;;;18.23;100.00;99900.16;105052;1254;60795;-50
2023/08/13 05:12:33;;;;;;;0.90;0.60;;;;;;;18.25;100.00;99902.38;105163;1253;72389;-49
2023/08/13 05:15:01;;;;;;;1.20;0.60;;;;;;;18.29;100.00;99901.52;105200;1254;67497;-49
2023/08/13 05:17:29;;;;;;;1.70;0.50;;;;;;;18.34;100.00;99902.41;105843;1259;72445;-49
2023/08/13 05:19:56;;;;;;;1.20;0.60;;;;;;;18.40;100.00;99900.67;104821;1254;60471;-48
2023/08/13 05:22:23;;;;;;;3.00;0.90;;;;;;;18.46;100.00;99899.96;104947;1259;175323;-49
2023/08/13 05:25:38;;;;;;;1.40;0.60;;;;;;;18.58;100.00;99925.63;101973;1291;601792;-49
2023/08/13 05:28:06;;;;;;;1.20;0.60;;;;;;;18.64;100.00;99936.41;108281;1267;58790;-50
2023/08/13 05:30:38;;;;;;;2.00;0.50;;;;;;;18.71;100.00;99933.65;108120;1265;58724;-52
2023/08/13 05:33:07;;;;;;;0.90;0.50;;;;;;;18.80;100.00;99935.13;108214;1266;73809;-51
2023/08/13 05:35:34;;;;;;;7.10;0.70;;;;;;;18.87;100.00;99932.20;108122;1267;67267;-51
2023/08/13 05:38:02;;;;;;;1.00;0.50;;;;;;;18.96;100.00;99932.45;108144;1267;150893;-51
2023/08/13 05:40:33;;;;;;;1.00;0.50;;;;;;;19.03;100.00;99933.15;107146;1267;61776;-51
2023/08/13 05:43:02;;;;;;;1.40;0.50;;;;;;;19.10;100.00;99938.54;108422;1263;60581;-52
2023/08/13 05:45:29;;;;;;;0.80;0.40;;;;;;;19.18;100.00;99939.34;108404;1264;72087;-50
2023/08/13 05:47:56;;;;;;;1.40;0.60;;;;;;;19.26;100.00;99942.51;108239;1263;68522;-52
2023/08/13 05:50:24;;;;;;;0.60;0.50;;;;;;;19.35;100.00;99939.97;108432;1265;72676;-51
2023/08/13 05:52:52;;;;;;;0.70;0.50;;;;;;;19.45;100.00;99941.50;108479;1260;59049;-52
2023/08/13 05:55:19;;;;;;;2.00;0.50;;;;;;;19.56;100.00;99944.45;108619;1262;58737;-52
2023/08/13 05:57:46;;;;;;;1.40;0.50;;;;;;;19.65;100.00;99943.89;108645;1260;73494;-51
2023/08/13 06:00:14;;;;;;;3.90;0.60;;;;;;;19.72;100.00;99945.11;108532;1263;67567;-50
2023/08/13 06:02:42;;;;;;;1.00;0.50;;;;;;;19.81;100.00;99946.77;105596;1264;72700;-51
2023/08/13 06:05:09;;;;;;;2.50;0.50;;;;;;;19.88;100.00;99945.41;105461;1254;60367;-49
2023/08/13 06:07:36;;;;;;;0.80;0.50;;;;;;;19.95;100.00;99951.20;104975;1254;59634;-51
2023/08/13 06:10:04;;;;;;;0.90;0.40;;;;;;;20.02;100.00;99950.80;104678;1259;71258;-51
2023/08/13 06:12:32;;;;;;;1.40;0.60;;;;;;;20.08;100.00;99949.52;104811;1254;68530;-50
2023/08/13 06:15:00;;;;;;;0.70;0.50;;;;;;;20.13;100.00;99949.29;104979;1259;72684;-52
2023/08/13 06:17:27;;;;;;;0.70;0.50;;;;;;;20.20;100.00;99954.95;104831;1254;60188;-52
2023/08/13 06:19:54;;;;;;;0.60;0.40;;;;;;;20.27;100.00;99960.48;104922;1259;59701;-51
2023/08/13 06:22:22;;;;;;;0.40;0.30;;;;;;;20.35;100.00;99961.30;104927;1259;71470;-52
2023/08/13 06:24:49;;;;;;;1.40;0.40;;;;;;;20.42;100.00;99962.73;105029;1257;66956;-52
2023/08/13 06:27:16;;;;;;;0.80;0.50;;;;;;;20.46;100.00;99962.02;104993;1254;73730;-52
2023/08/13 06:29:44;;;;;;;0.70;0.40;;;;;;;20.50;100.00;99967.46;104547;1259;59688;-49
2023/08/13 06:32:31;;;;;;;0.50;0.40;;;;;;;20.56;100.00;99965.36;104872;1254;60103;-50
2023/08/13 06:34:58;;;;;;;0.60;0.50;;;;;;;20.62;100.00;99966.64;104738;1254;73117;-52
2023/08/13 06:37:26;;;;;;;2.30;0.40;;;;;;;20.68;100.00;99969.39;105023;1259;69322;-51
2023/08/13 06:39:53;;;;;;;1.00;0.40;;;;;;;20.75;100.00;99970.09;104864;1259;71352;-51
2023/08/13 06:42:20;;;;;;;0.50;0.40;;;;;;;20.82;100.00;99974.41;104924;1257;60207;-51
2023/08/13 06:44:48;;;;;;;0.80;0.50;;;;;;;20.87;100.00;99974.07;104966;1252;60122;-50
2023/08/13 06:47:16;;;;;;;0.50;0.40;;;;;;;20.91;100.00;99975.61;104693;1254;71865;-50
2023/08/13 06:49:43;;;;;;;0.40;0.30;;;;;;;20.94;100.00;99975.15;104507;1258;66005;-52
2023/08/13 06:52:10;;;;;;;2.60;0.40;;;;;;;20.97;100.00;99975.76;105146;1254;72517;-52
2023/08/13 06:54:38;;;;;;;3.00;0.50;;;;;;;21.01;100.00;99977.95;104750;1254;61293;-53
2023/08/13 06:57:05;;;;;;;0.40;0.40;;;;;;;21.06;100.00;99979.70;104885;1260;59832;-51
2023/08/13 06:59:32;;;;;;;0.40;0.40;;;;;;;21.11;100.00;99981.40;104521;1252;73233;-53
2023/08/13 07:02:00;;;;;;;2.00;0.50;;;;;;;21.19;100.00;99984.06;104911;1254;65943;-53
2023/08/13 07:04:28;;;;;;;1.20;0.40;;;;;;;21.25;100.00;99982.43;105669;1255;72826;-51
2023/08/13 07:06:56;;;;;;;1.20;0.50;;;;;;;21.31;100.00;99984.65;104858;1254;59858;-52
2023/08/13 07:09:25;;;;;;;0.50;0.40;;;;;;;21.35;100.00;99981.33;104896;1259;59831;-52
2023/08/13 07:11:53;;;;;;;1.20;0.50;;;;;;;21.39;100.00;99983.52;104888;1254;71730;-52
2023/08/13 07:14:20;;;;;;;5.10;1.30;;;;;;;21.44;100.00;99983.98;104858;1256;65521;-50
2023/08/13 07:16:47;;;;;;;2.20;0.30;;;;;;;21.50;100.00;99985.32;104862;1260;71429;-51
2023/08/13 07:19:15;;;;;;;1.50;0.40;;;;;;;21.56;100.00;99992.60;105087;1260;59646;-53
2023/08/13 07:21:42;;;;;;;0.60;0.40;;;;;;;21.62;100.00;99989.71;105054;1256;59832;-51
2023/08/13 07:24:09;;;;;;;0.40;0.40;;;;;;;21.68;100.00;99998.63;104628;1261;73528;-53
2023/08/13 07:26:37;;;;;;;0.60;0.40;;;;;;;21.74;100.00;99996.23;104948;1257;66902;-50
2023/08/13 07:29:06;;;;;;;0.40;0.40;;;;;;;21.79;100.00;99995.77;104781;1254;73145;-51
2023/08/13 07:31:36;;;;;;;0.60;0.40;;;;;;;21.85;100.00;99993.84;105921;1256;59843;-53
2023/08/13 07:34:04;;;;;;;2.50;0.40;;;;;;;21.91;100.00;99993.77;104632;1254;59615;-51
2023/08/13 07:36:32;;;;;;;0.60;0.40;;;;;;;21.99;100.00;99998.71;107028;1258;73056;-52
2023/08/13 07:38:59;;;;;;;0.30;0.30;;;;;;;22.06;100.00;99996.23;104673;1257;66805;-50
2023/08/13 07:41:26;;;;;;;0.90;0.30;;;;;;;22.13;100.00;99990.81;104975;1257;72412;-48
2023/08/13 07:43:54;;;;;;;1.80;1.00;;;;;;;22.21;100.00;99993.73;104884;1254;60529;-50
2023/08/13 07:46:22;;;;;;;2.00;0.50;;;;;;;22.29;100.00;99995.40;105860;1257;60181;-52
2023/08/13 07:48:52;;;;;;;2.20;0.40;;;;;;;22.36;100.00;99996.83;104853;1253;71790;-52
2023/08/13 07:51:20;;;;;;;1.90;0.60;;;;;;;22.44;100.00;100001.88;105014;1256;65892;-52
2023/08/13 07:53:47;;;;;;;0.50;0.40;;;;;;;22.53;100.00;99998.40;104913;1259;72632;-51
2023/08/13 07:56:15;;;;;;;1.50;0.30;;;;;;;22.61;100.00;99998.23;104934;1259;59630;-50
2023/08/13 07:58:42;;;;;;;1.90;0.40;;;;;;;22.69;100.00;100005.02;104938;1254;59770;-52
2023/08/13 08:01:09;;;;;;;0.80;0.40;;;;;;;22.78;100.00;100007.66;104889;1255;71495;-52
2023/08/13 08:03:37;;;;;;;0.60;0.40;;;;;;;22.85;100.00;100013.92;108736;1254;67310;-51
2023/08/13 08:06:04;;;;;;;2.60;0.50;;;;;;;22.92;100.00;100010.13;105049;1254;73857;-50
2023/08/13 08:08:32;;;;;;;0.70;0.40;;;;;;;23.00;100.00;100011.33;105437;1257;60519;-50
2023/08/13 08:10:59;;;;;;;1.30;0.40;;;;;;;23.09;100.00;100013.05;104977;1259;60070;-51
2023/08/13 08:13:27;;;;;;;0.70;0.50;;;;;;;23.17;100.00;100012.24;104863;1257;73282;-50
2023/08/13 08:15:56;;;;;;;2.70;0.40;;;;;;;23.25;100.00;100016.46;105092;1254;65870;-51
2023/08/13 08:18:24;;;;;;;2.10;0.40;;;;;;;23.28;100.00;100011.89;106396;1258;71465;-50
2023/08/13 08:20:52;;;;;;;0.70;0.40;;;;;;;23.32;100.00;100015.77;105552;1259;60003;-50
2023/08/13 08:23:19;;;;;;;0.40;0.30;;;;;;;23.33;100.00;100007.52;104756;1259;59727;-52
2023/08/13 08:25:47;;;;;;;0.30;0.30;;;;;;;23.38;100.00;100006.13;105021;1256;71795;-51
2023/08/13 08:28:14;;;;;;;4.30;1.20;;;;;;;23.47;100.00;100007.73;105023;1256;67388;-50
2023/08/13 08:30:42;;;;;;;0.60;0.40;;;;;;;23.56;100.00;100008.64;105054;1267;73145;-51
2023/08/13 08:33:09;;;;;;;0.80;0.40;;;;;;;23.65;100.00;100011.80;104975;1256;60054;-51
2023/08/13 08:35:37;;;;;;;0.50;0.30;;;;;;;23.67;100.00;100007.93;104899;1254;60487;-53
2023/08/13 08:38:04;;;;;;;0.50;0.30;;;;;;;23.62;100.00;100012.99;104998;1259;71779;-50
2023/08/13 08:40:32;;;;;;;0.40;0.30;;;;;;;23.56;100.00;100013.96;109145;1253;67413;-51
2023/08/13 08:42:59;;;;;;;0.60;0.30;;;;;;;23.51;100.00;100011.35;109029;1254;71450;-51
2023/08/13 08:45:27;;;;;;;0.60;0.30;;;;;;;23.52;100.00;100007.48;109116;1254;59048;-51
2023/08/13 08:47:54;;;;;;;1.10;0.30;;;;;;;23.58;100.00;100002.08;109147;1254;59989;-52
2023/08/13 08:50:21;;;;;;;0.30;0.30;;;;;;;23.66;100.00;100011.70;109004;1253;73048;-51
2023/08/13 08:52:49;;;;;;;0.40;0.30;;;;;;;23.72;100.00;100013.13;109093;1252;65486;-50
2023/08/13 08:55:17;;;;;;;1.00;0.30;;;;;;;23.77;100.00;100009.53;109047;1253;72707;-51
2023/08/13 08:57:44;;;;;;;0.50;0.30;;;;;;;23.80;100.00;100005.16;109061;1254;58844;-50
2023/08/13 09:00:12;;;;;;;0.70;0.30;;;;;;;23.84;100.00;100010.63;109247;1252;58717;-51
2023/08/13 09:02:41;;;;;;;0.50;0.30;;;;;;;23.84;100.00;100011.20;108568;1252;72989;-51
2023/08/13 09:05:09;;;;;;;1.90;0.30;;;;;;;23.86;100.00;100009.90;108944;1253;66112;-51
2023/08/13 09:07:44;;;;;;;4.30;0.30;;;;;;;23.92;100.00;100006.92;105949;1254;72467;-52
2023/08/13 09:10:11;;;;;;;0.60;0.40;;;;;;;23.97;100.00;100008.67;104956;1254;60402;-50
2023/08/13 09:12:40;;;;;;;0.90;0.30;;;;;;;23.92;100.00;100015.38;105115;1260;59645;-50
2023/08/13 09:15:11;;;;;;;1.50;0.30;;;;;;;23.83;100.00;100014.09;104984;1255;72695;-52
2023/08/13 09:17:39;;;;;;;0.40;0.30;;;;;;;23.75;100.00;100013.39;104823;1258;66917;-52
2023/08/13 09:20:17;;;;;;;1.70;0.30;;;;;;;23.70;100.00;100013.52;104906;1254;71441;-52
2023/08/13 09:22:48;;;;;;;0.40;0.30;;;;;;;23.68;100.00;100007.09;105166;1257;60059;-49
2023/08/13 09:25:15;;;;;;;0.60;0.40;;;;;;;23.74;100.00;100003.04;105097;1259;59551;-52
2023/08/13 09:27:44;;;;;;;0.40;0.30;;;;;;;23.83;100.00;100010.62;104806;1259;73013;-51
2023/08/13 09:30:12;;;;;;;0.40;0.30;;;;;;;23.90;100.00;100008.20;104803;1260;67324;-51
2023/08/13 09:32:41;;;;;;;1.90;0.40;;;;;;;23.95;100.00;100005.34;104960;1259;71331;-50
2023/08/13 09:35:09;;;;;;;0.60;0.30;;;;;;;23.99;100.00;100005.10;105108;1256;60562;-53
2023/08/13 09:37:36;;;;;;;1.80;0.40;;;;;;;24.03;100.00;100002.63;104871;1259;60529;-51
2023/08/13 09:40:04;;;;;;;1.80;0.40;;;;;;;24.12;100.00;100008.54;104912;1257;74656;-51
2023/08/13 09:42:32;;;;;;;2.20;0.40;;;;;;;24.20;100.00;100007.75;105342;1260;66763;-52
2023/08/13 09:45:02;;;;;;;0.40;0.20;;;;;;;24.27;100.00;100004.51;105435;1253;71745;-53
2023/08/13 09:47:30;;;;;;;0.70;0.40;;;;;;;24.32;100.00;100010.23;104991;1253;60628;-51
2023/08/13 09:49:57;;;;;;;0.80;0.30;;;;;;;24.35;100.00;100013.64;104830;1260;60457;-52
2023/08/13 09:52:26;;;;;;;0.70;0.40;;;;;;;24.38;100.00;100011.94;104601;1259;72716;-48
2023/08/13 09:55:01;;;;;;;0.40;0.30;;;;;;;24.40;100.00;100012.54;106331;1254;66333;-52
2023/08/13 09:57:28;;;;;;;0.70;0.30;;;;;;;24.42;100.00;100009.89;106528;1260;71380;-50
2023/08/13 09:59:56;;;;;;;0.40;0.30;;;;;;;24.45;100.00;100006.05;104624;1254;60407;-51
2023/08/13 10:02:24;;;;;;;0.70;0.40;;;;;;;24.52;100.00;100009.42;104575;1259;60415;-50
2023/08/13 10:04:51;;;;;;;3.60;0.40;;;;;;;24.61;100.00;100006.74;105004;1260;73850;-51
2023/08/13 10:07:18;;;;;;;0.60;0.30;;;;;;;24.66;100.00;100015.52;104938;1255;66273;-48
2023/08/13 10:09:46;;;;;;;0.50;0.40;;;;;;;24.67;100.00;100009.88;104972;1254;71842;-53
2023/08/13 10:12:32;;;;;;;0.50;0.40;;;;;;;24.71;100.00;100009.33;105179;1254;60421;-50
2023/08/13 10:15:00;;;;;;;0.30;0.30;;;;;;;24.75;100.00;100004.83;105088;1259;60487;-52
2023/08/13 10:17:27;;;;;;;1.70;0.40;;;;;;;24.82;100.00;100003.95;104914;1262;73846;-51
2023/08/13 10:19:55;;;;;;;0.70;0.30;;;;;;;24.88;100.00;100000.34;105175;1260;67613;-51
2023/08/13 10:22:43;;;;;;;1.10;0.30;;;;;;;24.96;100.00;100001.25;105111;1258;72717;-51
2023/08/13 10:25:34;;;;;;;0.50;0.30;;;;;;;25.03;100.00;100002.54;104786;1258;60559;-51
2023/08/13 10:28:22;;;;;;;0.50;0.40;;;;;;;25.10;100.00;100006.96;104958;1260;60587;-52
2023/08/13 10:30:50;;;;;;;0.40;0.30;;;;;;;25.14;100.00;100002.29;105107;1260;73851;-52
2023/08/13 10:33:17;;;;;;;0.60;0.30;;;;;;;25.18;100.00;100002.20;105008;1260;67207;-50
2023/08/13 10:35:44;;;;;;;0.50;0.30;;;;;;;25.22;100.00;100003.96;104910;1261;72795;-51
2023/08/13 10:38:12;;;;;;;1.40;0.30;;;;;;;25.22;100.00;100007.27;104946;1258;60814;-49
2023/08/13 10:40:57;;;;;;;1.00;0.30;;;;;;;25.23;100.00;100004.27;105015;1254;60567;-52
2023/08/13 10:43:24;;;;;;;0.60;0.30;;;;;;;25.27;100.00;100000.38;105039;1259;73858;-51
2023/08/13 10:45:51;;;;;;;0.50;0.40;;;;;;;25.30;100.00;100002.63;105097;1259;67473;-51
2023/08/13 10:48:28;;;;;;;0.80;0.30;;;;;;;25.33;100.00;100007.86;104990;1258;71440;-51
2023/08/13 10:50:57;;;;;;;0.50;0.30;;;;;;;25.30;100.00;100004.63;105112;1254;60526;-51
2023/08/13 10:53:26;;;;;;;3.30;0.30;;;;;;;25.21;100.00;100004.98;105124;1255;60395;-50
2023/08/13 10:56:00;;;;;;;0.40;0.30;;;;;;;25.10;100.00;99998.52;106070;1260;73832;-49
2023/08/13 10:58:35;;;;;;;0.90;0.30;;;;;;;25.01;100.00;99990.10;104869;1259;66557;-53
2023/08/13 11:01:13;;;;;;;0.40;0.30;;;;;;;24.97;100.00;99990.48;105130;1260;72635;-52
2023/08/13 11:03:44;;;;;;;0.40;0.40;;;;;;;24.99;100.00;99988.81;105047;1258;60620;-53
2023/08/13 11:06:14;;;;;;;0.50;0.40;;;;;;;25.03;100.00;99986.73;105496;1254;60529;-49
2023/08/13 11:08:43;;;;;;;0.50;0.40;;;;;;;25.01;100.00;99984.59;104971;1254;73856;-53
2023/08/13 11:11:18;;;;;;;0.40;0.30;;;;;;;24.97;100.00;99978.02;104865;1254;66787;-53
2023/08/13 11:13:46;;;;;;;1.00;0.30;;;;;;;24.91;100.00;99980.98;104751;1263;73573;-51
2023/08/13 11:16:13;;;;;;;0.30;0.30;;;;;;;24.84;100.00;99973.99;105680;1257;60374;-53
2023/08/13 11:18:41;;;;;;;1.70;0.30;;;;;;;24.78;100.00;99970.95;105121;1257;60504;-52
2023/08/13 11:21:08;;;;;;;3.00;0.40;;;;;;;24.72;100.00;99969.73;104676;1263;72639;-53
2023/08/13 11:23:36;;;;;;;0.40;0.30;;;;;;;24.70;100.00;99964.13;104918;1260;68150;-50